sensor_id;sensor_type;location;lat;lon;timestamp;P1;durP1;ratioP1;P2;durP2;ratioP2
65039;SDS011;51606;45.000;38.612;2023-08-30T04:48:54;3.13;;;1.38;;
65039;SDS011;51606;45.000;38.612;2023-08-30T04:51:22;6.55;;;1.90;;
65039;SDS011;51606;45.000;38.612;2023-08-30T04:53:50;6.50;;;2.20;;
65039;SDS011;51606;45.000;38.612;2023-08-30T04:56:17;8.85;;;2.78;;
65039;SDS011;51606;45.000;38.612;2023-08-30T04:58:44;7.13;;;2.17;;
65039;SDS011;51606;45.000;38.612;2023-08-30T05:01:11;3.42;;;1.88;;
65039;SDS011;51606;45.000;38.612;2023-08-30T05:03:40;6.40;;;1.45;;
65039;SDS011;51606;45.000;38.612;2023-08-30T05:06:09;3.45;;;1.52;;
65039;SDS011;51606;45.000;38.612;2023-08-30T05:08:38;9.02;;;1.80;;
65039;SDS011;51606;45.000;38.612;2023-08-30T05:11:06;4.38;;;1.25;;
65039;SDS011;51606;45.000;38.612;2023-08-30T05:13:33;1.17;;;0.90;;
65039;SDS011;51606;45.000;38.612;2023-08-30T05:15:59;4.85;;;0.90;;
65039;SDS011;51606;45.000;38.612;2023-08-30T05:18:26;2.50;;;1.00;;
65039;SDS011;51606;45.000;38.612;2023-08-30T05:20:52;1.65;;;1.00;;
65039;SDS011;51606;45.000;38.612;2023-08-30T05:23:18;2.97;;;0.90;;
65039;SDS011;51606;45.000;38.612;2023-08-30T05:25:46;2.08;;;0.82;;
65039;SDS011;51606;45.000;38.612;2023-08-30T05:28:14;5.32;;;0.85;;
65039;SDS011;51606;45.000;38.612;2023-08-30T05:30:41;2.53;;;0.93;;
65039;SDS011;51606;45.000;38.612;2023-08-30T05:33:15;2.33;;;1.08;;
65039;SDS011;51606;45.000;38.612;2023-08-30T05:35:50;2.90;;;0.98;;
65039;SDS011;51606;45.000;38.612;2023-08-30T05:38:29;1.45;;;1.00;;
65039;SDS011;51606;45.000;38.612;2023-08-30T05:41:16;4.63;;;1.52;;
65039;SDS011;51606;45.000;38.612;2023-08-30T05:43:42;1.55;;;1.10;;
65039;SDS011;51606;45.000;38.612;2023-08-30T05:46:09;11.52;;;1.13;;
65039;SDS011;51606;45.000;38.612;2023-08-30T05:48:40;10.05;;;1.20;;
65039;SDS011;51606;45.000;38.612;2023-08-30T05:51:07;1.88;;;0.77;;
65039;SDS011;51606;45.000;38.612;2023-08-30T05:53:33;4.20;;;0.90;;
65039;SDS011;51606;45.000;38.612;2023-08-30T05:56:00;4.95;;;1.10;;
65039;SDS011;51606;45.000;38.612;2023-08-30T05:58:26;1.08;;;0.70;;
65039;SDS011;51606;45.000;38.612;2023-08-30T06:00:53;2.75;;;1.00;;
65039;SDS011;51606;45.000;38.612;2023-08-30T06:03:20;1.35;;;0.77;;
65039;SDS011;51606;45.000;38.612;2023-08-30T06:05:46;2.50;;;1.00;;
65039;SDS011;51606;45.000;38.612;2023-08-30T06:08:14;5.63;;;1.20;;
65039;SDS011;51606;45.000;38.612;2023-08-30T06:10:43;2.95;;;1.58;;
65039;SDS011;51606;45.000;38.612;2023-08-30T06:13:09;6.20;;;1.10;;
65039;SDS011;51606;45.000;38.612;2023-08-30T06:15:36;8.25;;;1.15;;
65039;SDS011;51606;45.000;38.612;2023-08-30T06:18:03;2.90;;;1.40;;
65039;SDS011;51606;45.000;38.612;2023-08-30T06:20:30;6.32;;;1.00;;
65039;SDS011;51606;45.000;38.612;2023-08-30T06:22:57;4.70;;;1.10;;
65039;SDS011;51606;45.000;38.612;2023-08-30T06:25:24;1.88;;;1.10;;
65039;SDS011;51606;45.000;38.612;2023-08-30T06:27:57;8.07;;;1.20;;
65039;SDS011;51606;45.000;38.612;2023-08-30T06:30:25;6.03;;;0.88;;
65039;SDS011;51606;45.000;38.612;2023-08-30T06:32:51;12.35;;;1.58;;
65039;SDS011;51606;45.000;38.612;2023-08-30T06:35:18;7.75;;;1.20;;
65039;SDS011;51606;45.000;38.612;2023-08-30T06:37:44;3.67;;;1.70;;
65039;SDS011;51606;45.000;38.612;2023-08-30T06:40:11;7.82;;;1.10;;
65039;SDS011;51606;45.000;38.612;2023-08-30T06:42:38;3.22;;;0.98;;
65039;SDS011;51606;45.000;38.612;2023-08-30T06:45:04;1.30;;;1.08;;
65039;SDS011;51606;45.000;38.612;2023-08-30T06:47:31;10.55;;;1.23;;
65039;SDS011;51606;45.000;38.612;2023-08-30T06:49:58;2.33;;;1.00;;
65039;SDS011;51606;45.000;38.612;2023-08-30T06:52:25;7.57;;;1.83;;
65039;SDS011;51606;45.000;38.612;2023-08-30T06:54:52;1.58;;;0.93;;
65039;SDS011;51606;45.000;38.612;2023-08-30T06:57:18;3.33;;;1.40;;
65039;SDS011;51606;45.000;38.612;2023-08-30T06:59:45;3.67;;;1.10;;
65039;SDS011;51606;45.000;38.612;2023-08-30T07:02:11;5.18;;;1.55;;
65039;SDS011;51606;45.000;38.612;2023-08-30T07:04:39;8.27;;;1.15;;
65039;SDS011;51606;45.000;38.612;2023-08-30T07:07:06;3.20;;;1.20;;
65039;SDS011;51606;45.000;38.612;2023-08-30T07:09:32;2.25;;;1.00;;
65039;SDS011;51606;45.000;38.612;2023-08-30T07:11:59;8.38;;;1.30;;
65039;SDS011;51606;45.000;38.612;2023-08-30T07:14:25;2.58;;;1.35;;
65039;SDS011;51606;45.000;38.612;2023-08-30T07:16:52;3.65;;;1.63;;
65039;SDS011;51606;45.000;38.612;2023-08-30T07:19:18;5.78;;;1.25;;
65039;SDS011;51606;45.000;38.612;2023-08-30T07:21:45;10.82;;;1.35;;
65039;SDS011;51606;45.000;38.612;2023-08-30T07:24:11;8.82;;;1.55;;
65039;SDS011;51606;45.000;38.612;2023-08-30T07:26:38;1.20;;;1.05;;
65039;SDS011;51606;45.000;38.612;2023-08-30T07:29:04;2.42;;;1.27;;
65039;SDS011;51606;45.000;38.612;2023-08-30T07:31:31;3.08;;;1.58;;
65039;SDS011;51606;45.000;38.612;2023-08-30T07:33:58;8.73;;;1.38;;
65039;SDS011;51606;45.000;38.612;2023-08-30T07:36:26;6.70;;;1.70;;
65039;SDS011;51606;45.000;38.612;2023-08-30T07:38:53;8.20;;;1.70;;
65039;SDS011;51606;45.000;38.612;2023-08-30T07:41:20;5.07;;;1.63;;
65039;SDS011;51606;45.000;38.612;2023-08-30T07:43:47;7.90;;;1.13;;
65039;SDS011;51606;45.000;38.612;2023-08-30T07:46:13;5.47;;;1.40;;
65039;SDS011;51606;45.000;38.612;2023-08-30T07:48:40;11.27;;;1.33;;
65039;SDS011;51606;45.000;38.612;2023-08-30T07:51:06;5.78;;;1.55;;
65039;SDS011;51606;45.000;38.612;2023-08-30T07:53:33;3.30;;;1.63;;
65039;SDS011;51606;45.000;38.612;2023-08-30T07:55:59;5.55;;;1.52;;
65039;SDS011;51606;45.000;38.612;2023-08-30T07:58:26;9.63;;;1.55;;
65039;SDS011;51606;45.000;38.612;2023-08-30T08:00:52;12.43;;;1.70;;
65039;SDS011;51606;45.000;38.612;2023-08-30T08:03:21;3.75;;;1.45;;
65039;SDS011;51606;45.000;38.612;2023-08-30T08:05:48;3.05;;;1.38;;
65039;SDS011;51606;45.000;38.612;2023-08-30T08:08:14;5.18;;;1.95;;
65039;SDS011;51606;45.000;38.612;2023-08-30T08:10:42;8.48;;;1.45;;
65039;SDS011;51606;45.000;38.612;2023-08-30T08:13:08;10.27;;;1.90;;
65039;SDS011;51606;45.000;38.612;2023-08-30T08:15:35;6.30;;;1.90;;
65039;SDS011;51606;45.000;38.612;2023-08-30T08:18:05;7.95;;;1.33;;
65039;SDS011;51606;45.000;38.612;2023-08-30T08:20:32;3.72;;;1.70;;
65039;SDS011;51606;45.000;38.612;2023-08-30T08:22:58;11.73;;;1.73;;
65039;SDS011;51606;45.000;38.612;2023-08-30T08:25:25;8.98;;;1.63;;
65039;SDS011;51606;45.000;38.612;2023-08-30T08:27:51;3.53;;;1.45;;
65039;SDS011;51606;45.000;38.612;2023-08-30T08:30:20;3.10;;;1.77;;
65039;SDS011;51606;45.000;38.612;2023-08-30T08:32:47;3.55;;;1.90;;
65039;SDS011;51606;45.000;38.612;2023-08-30T08:35:13;12.35;;;1.60;;
65039;SDS011;51606;45.000;38.612;2023-08-30T08:37:40;4.95;;;1.55;;
65039;SDS011;51606;45.000;38.612;2023-08-30T08:40:07;13.10;;;2.20;;
65039;SDS011;51606;45.000;38.612;2023-08-30T08:42:36;3.10;;;1.83;;
65039;SDS011;51606;45.000;38.612;2023-08-30T08:45:03;2.50;;;1.42;;
65039;SDS011;51606;45.000;38.612;2023-08-30T08:47:30;6.50;;;1.77;;
65039;SDS011;51606;45.000;38.612;2023-08-30T08:49:57;5.60;;;1.98;;
65039;SDS011;51606;45.000;38.612;2023-08-30T08:52:25;4.13;;;1.63;;
65039;SDS011;51606;45.000;38.612;2023-08-30T08:54:52;11.38;;;1.92;;
65039;SDS011;51606;45.000;38.612;2023-08-30T08:57:21;3.35;;;2.00;;
65039;SDS011;51606;45.000;38.612;2023-08-30T08:59:47;6.90;;;1.80;;
65039;SDS011;51606;45.000;38.612;2023-08-30T09:02:15;4.03;;;2.03;;
65039;SDS011;51606;45.000;38.612;2023-08-30T09:04:42;4.30;;;2.28;;
65039;SDS011;51606;45.000;38.612;2023-08-30T09:07:09;14.25;;;2.15;;
65039;SDS011;51606;45.000;38.612;2023-08-30T09:09:36;12.02;;;1.80;;
65039;SDS011;51606;45.000;38.612;2023-08-30T09:12:03;5.05;;;1.98;;
65039;SDS011;51606;45.000;38.612;2023-08-30T09:14:30;7.45;;;2.42;;
65039;SDS011;51606;45.000;38.612;2023-08-30T09:17:00;3.50;;;1.90;;
65039;SDS011;51606;45.000;38.612;2023-08-30T09:19:28;15.63;;;2.35;;
65039;SDS011;51606;45.000;38.612;2023-08-30T09:21:56;5.38;;;2.28;;
65039;SDS011;51606;45.000;38.612;2023-08-30T09:24:23;3.90;;;2.10;;
65039;SDS011;51606;45.000;38.612;2023-08-30T09:26:51;5.45;;;2.42;;
65039;SDS011;51606;45.000;38.612;2023-08-30T09:29:20;9.80;;;3.20;;
65039;SDS011;51606;45.000;38.612;2023-08-30T09:31:52;4.53;;;2.50;;
65039;SDS011;51606;45.000;38.612;2023-08-30T09:34:25;4.25;;;2.38;;
65039;SDS011;51606;45.000;38.612;2023-08-30T09:36:52;5.50;;;2.60;;
65039;SDS011;51606;45.000;38.612;2023-08-30T09:39:19;3.95;;;2.53;;
65039;SDS011;51606;45.000;38.612;2023-08-30T09:41:47;4.30;;;2.40;;
65039;SDS011;51606;45.000;38.612;2023-08-30T09:44:18;9.13;;;2.45;;
65039;SDS011;51606;45.000;38.612;2023-08-30T09:46:48;10.32;;;2.63;;
65039;SDS011;51606;45.000;38.612;2023-08-30T09:49:18;4.53;;;2.38;;
65039;SDS011;51606;45.000;38.612;2023-08-30T09:51:49;18.85;;;3.00;;
65039;SDS011;51606;45.000;38.612;2023-08-30T09:54:18;5.60;;;2.75;;
65039;SDS011;51606;45.000;38.612;2023-08-30T09:56:46;7.32;;;3.05;;
65039;SDS011;51606;45.000;38.612;2023-08-30T09:59:13;3.70;;;2.67;;
65039;SDS011;51606;45.000;38.612;2023-08-30T10:01:41;11.32;;;3.00;;
65039;SDS011;51606;45.000;38.612;2023-08-30T10:04:12;7.68;;;3.00;;
65039;SDS011;51606;45.000;38.612;2023-08-30T10:06:39;4.85;;;3.10;;
65039;SDS011;51606;45.000;38.612;2023-08-30T10:09:07;5.53;;;3.10;;
65039;SDS011;51606;45.000;38.612;2023-08-30T10:11:34;9.02;;;3.33;;
65039;SDS011;51606;45.000;38.612;2023-08-30T10:14:02;5.93;;;2.92;;
65039;SDS011;51606;45.000;38.612;2023-08-30T10:16:43;7.43;;;2.97;;
65039;SDS011;51606;45.000;38.612;2023-08-30T10:19:14;64.18;;;5.85;;
65039;SDS011;51606;45.000;38.612;2023-08-30T10:21:47;9.80;;;3.13;;
65039;SDS011;51606;45.000;38.612;2023-08-30T10:24:14;7.25;;;2.80;;
65039;SDS011;51606;45.000;38.612;2023-08-30T10:26:44;6.22;;;2.75;;
65039;SDS011;51606;45.000;38.612;2023-08-30T10:29:12;12.77;;;3.00;;
65039;SDS011;51606;45.000;38.612;2023-08-30T10:31:40;3.38;;;2.60;;
65039;SDS011;51606;45.000;38.612;2023-08-30T10:34:15;3.90;;;2.75;;
65039;SDS011;51606;45.000;38.612;2023-08-30T10:36:44;6.95;;;2.97;;
65039;SDS011;51606;45.000;38.612;2023-08-30T10:39:27;10.35;;;2.80;;
65039;SDS011;51606;45.000;38.612;2023-08-30T10:42:09;8.32;;;3.22;;
65039;SDS011;51606;45.000;38.612;2023-08-30T10:44:46;8.43;;;2.70;;
65039;SDS011;51606;45.000;38.612;2023-08-30T10:47:27;3.17;;;2.38;;
65039;SDS011;51606;45.000;38.612;2023-08-30T10:50:00;3.33;;;2.35;;
65039;SDS011;51606;45.000;38.612;2023-08-30T10:52:30;5.07;;;2.60;;
65039;SDS011;51606;45.000;38.612;2023-08-30T10:55:10;11.00;;;2.97;;
65039;SDS011;51606;45.000;38.612;2023-08-30T10:57:37;5.88;;;2.83;;
65039;SDS011;51606;45.000;38.612;2023-08-30T11:00:12;3.63;;;2.40;;
65039;SDS011;51606;45.000;38.612;2023-08-30T11:02:48;3.35;;;2.40;;
65039;SDS011;51606;45.000;38.612;2023-08-30T11:05:16;9.38;;;2.55;;
65039;SDS011;51606;45.000;38.612;2023-08-30T11:07:44;3.38;;;2.13;;
65039;SDS011;51606;45.000;38.612;2023-08-30T11:10:11;4.20;;;2.45;;
65039;SDS011;51606;45.000;38.612;2023-08-30T11:12:40;3.42;;;2.38;;
65039;SDS011;51606;45.000;38.612;2023-08-30T11:15:07;4.63;;;2.30;;
65039;SDS011;51606;45.000;38.612;2023-08-30T11:17:35;6.47;;;2.25;;
65039;SDS011;51606;45.000;38.612;2023-08-30T11:20:08;7.32;;;2.53;;
65039;SDS011;51606;45.000;38.612;2023-08-30T11:22:40;3.08;;;2.13;;
65039;SDS011;51606;45.000;38.612;2023-08-30T11:25:08;5.28;;;2.22;;
65039;SDS011;51606;45.000;38.612;2023-08-30T11:27:36;5.07;;;2.50;;
65039;SDS011;51606;45.000;38.612;2023-08-30T11:30:04;3.55;;;1.98;;
65039;SDS011;51606;45.000;38.612;2023-08-30T11:32:34;6.50;;;2.50;;
65039;SDS011;51606;45.000;38.612;2023-08-30T11:35:03;5.82;;;2.58;;
65039;SDS011;51606;45.000;38.612;2023-08-30T11:37:30;5.07;;;2.45;;
65039;SDS011;51606;45.000;38.612;2023-08-30T11:39:58;5.78;;;2.35;;
65039;SDS011;51606;45.000;38.612;2023-08-30T11:42:25;3.85;;;2.05;;
65039;SDS011;51606;45.000;38.612;2023-08-30T11:44:51;3.88;;;2.42;;
65039;SDS011;51606;45.000;38.612;2023-08-30T11:47:25;2.70;;;2.10;;
65039;SDS011;51606;45.000;38.612;2023-08-30T11:49:55;6.45;;;2.22;;
65039;SDS011;51606;45.000;38.612;2023-08-30T11:52:23;3.30;;;2.03;;
65039;SDS011;51606;45.000;38.612;2023-08-30T11:54:51;5.07;;;2.50;;
65039;SDS011;51606;45.000;38.612;2023-08-30T11:57:18;3.05;;;1.70;;
65039;SDS011;51606;45.000;38.612;2023-08-30T11:59:46;6.78;;;2.22;;
65039;SDS011;51606;45.000;38.612;2023-08-30T12:02:13;3.28;;;2.00;;
65039;SDS011;51606;45.000;38.612;2023-08-30T12:04:44;4.63;;;2.28;;
65039;SDS011;51606;45.000;38.612;2023-08-30T12:07:21;9.95;;;2.30;;
65039;SDS011;51606;45.000;38.612;2023-08-30T12:09:49;3.50;;;1.92;;
65039;SDS011;51606;45.000;38.612;2023-08-30T12:12:24;8.95;;;2.35;;
65039;SDS011;51606;45.000;38.612;2023-08-30T12:14:56;4.43;;;2.03;;
65039;SDS011;51606;45.000;38.612;2023-08-30T12:17:23;2.28;;;1.70;;
65039;SDS011;51606;45.000;38.612;2023-08-30T12:19:56;2.42;;;1.75;;
65039;SDS011;51606;45.000;38.612;2023-08-30T12:22:34;4.32;;;2.17;;
65039;SDS011;51606;45.000;38.612;2023-08-30T12:25:01;2.30;;;1.90;;
65039;SDS011;51606;45.000;38.612;2023-08-30T12:27:29;2.95;;;2.00;;
65039;SDS011;51606;45.000;38.612;2023-08-30T12:29:56;4.40;;;1.80;;
65039;SDS011;51606;45.000;38.612;2023-08-30T12:32:22;3.83;;;1.98;;
65039;SDS011;51606;45.000;38.612;2023-08-30T12:34:48;3.92;;;1.95;;
65039;SDS011;51606;45.000;38.612;2023-08-30T12:37:15;2.90;;;1.90;;
65039;SDS011;51606;45.000;38.612;2023-08-30T12:39:41;5.57;;;2.05;;
65039;SDS011;51606;45.000;38.612;2023-08-30T12:42:08;3.83;;;2.05;;
65039;SDS011;51606;45.000;38.612;2023-08-30T12:44:34;10.10;;;2.08;;
65039;SDS011;51606;45.000;38.612;2023-08-30T12:47:01;6.43;;;2.00;;
65039;SDS011;51606;45.000;38.612;2023-08-30T12:49:27;2.92;;;1.88;;
65039;SDS011;51606;45.000;38.612;2023-08-30T12:51:54;5.72;;;2.15;;
65039;SDS011;51606;45.000;38.612;2023-08-30T12:54:20;2.28;;;1.80;;
65039;SDS011;51606;45.000;38.612;2023-08-30T12:56:47;4.60;;;2.25;;
65039;SDS011;51606;45.000;38.612;2023-08-30T12:59:13;6.95;;;1.88;;
65039;SDS011;51606;45.000;38.612;2023-08-30T13:01:40;4.15;;;1.63;;
65039;SDS011;51606;45.000;38.612;2023-08-30T13:04:06;3.25;;;2.10;;
65039;SDS011;51606;45.000;38.612;2023-08-30T13:06:33;4.07;;;1.88;;
65039;SDS011;51606;45.000;38.612;2023-08-30T13:08:59;3.42;;;2.10;;
65039;SDS011;51606;45.000;38.612;2023-08-30T13:11:26;3.53;;;2.08;;
65039;SDS011;51606;45.000;38.612;2023-08-30T13:13:54;3.33;;;2.20;;
65039;SDS011;51606;45.000;38.612;2023-08-30T13:16:22;5.10;;;2.17;;
65039;SDS011;51606;45.000;38.612;2023-08-30T13:18:48;3.50;;;2.05;;
65039;SDS011;51606;45.000;38.612;2023-08-30T13:21:15;3.45;;;1.67;;
65039;SDS011;51606;45.000;38.612;2023-08-30T13:23:41;7.38;;;2.00;;
65039;SDS011;51606;45.000;38.612;2023-08-30T13:26:07;4.47;;;2.15;;
65039;SDS011;51606;45.000;38.612;2023-08-30T13:28:34;7.03;;;2.00;;
65039;SDS011;51606;45.000;38.612;2023-08-30T13:31:00;5.18;;;2.50;;
65039;SDS011;51606;45.000;38.612;2023-08-30T13:33:26;3.58;;;2.20;;
65039;SDS011;51606;45.000;38.612;2023-08-30T13:35:53;4.03;;;2.00;;
65039;SDS011;51606;45.000;38.612;2023-08-30T13:38:21;6.35;;;2.20;;
65039;SDS011;51606;45.000;38.612;2023-08-30T13:40:48;9.00;;;2.47;;
65039;SDS011;51606;45.000;38.612;2023-08-30T13:43:15;2.25;;;1.73;;
65039;SDS011;51606;45.000;38.612;2023-08-30T13:45:41;3.58;;;2.20;;
65039;SDS011;51606;45.000;38.612;2023-08-30T13:48:09;6.63;;;2.17;;
65039;SDS011;51606;45.000;38.612;2023-08-30T13:50:40;2.88;;;1.98;;
65039;SDS011;51606;45.000;38.612;2023-08-30T13:53:07;7.22;;;2.10;;
65039;SDS011;51606;45.000;38.612;2023-08-30T13:55:33;10.00;;;2.25;;
65039;SDS011;51606;45.000;38.612;2023-08-30T13:57:59;6.20;;;2.30;;
65039;SDS011;51606;45.000;38.612;2023-08-30T14:00:26;2.55;;;1.92;;
65039;SDS011;51606;45.000;38.612;2023-08-30T14:02:52;6.18;;;2.22;;
65039;SDS011;51606;45.000;38.612;2023-08-30T14:05:19;7.90;;;2.08;;
65039;SDS011;51606;45.000;38.612;2023-08-30T14:07:45;3.88;;;1.92;;
65039;SDS011;51606;45.000;38.612;2023-08-30T14:10:11;5.93;;;2.28;;
65039;SDS011;51606;45.000;38.612;2023-08-30T14:12:45;5.63;;;2.25;;
65039;SDS011;51606;45.000;38.612;2023-08-30T14:15:11;2.45;;;1.65;;
65039;SDS011;51606;45.000;38.612;2023-08-30T14:17:41;8.55;;;2.25;;
65039;SDS011;51606;45.000;38.612;2023-08-30T14:20:07;10.75;;;3.05;;
65039;SDS011;51606;45.000;38.612;2023-08-30T14:22:34;7.53;;;2.13;;
65039;SDS011;51606;45.000;38.612;2023-08-30T14:25:03;15.68;;;2.30;;
65039;SDS011;51606;45.000;38.612;2023-08-30T14:27:30;22.70;;;2.63;;
65039;SDS011;51606;45.000;38.612;2023-08-30T14:29:56;4.88;;;2.15;;
65039;SDS011;51606;45.000;38.612;2023-08-30T14:32:23;3.55;;;1.90;;
65039;SDS011;51606;45.000;38.612;2023-08-30T14:34:49;6.07;;;2.03;;
65039;SDS011;51606;45.000;38.612;2023-08-30T14:37:15;14.90;;;2.25;;
65039;SDS011;51606;45.000;38.612;2023-08-30T14:39:42;9.70;;;2.15;;
65039;SDS011;51606;45.000;38.612;2023-08-30T14:42:08;10.95;;;2.42;;
65039;SDS011;51606;45.000;38.612;2023-08-30T14:44:34;6.38;;;2.17;;
65039;SDS011;51606;45.000;38.612;2023-08-30T14:47:01;7.72;;;2.42;;
65039;SDS011;51606;45.000;38.612;2023-08-30T14:49:27;4.45;;;2.40;;
65039;SDS011;51606;45.000;38.612;2023-08-30T14:51:57;6.57;;;2.22;;
65039;SDS011;51606;45.000;38.612;2023-08-30T14:54:25;6.70;;;2.10;;
65039;SDS011;51606;45.000;38.612;2023-08-30T14:56:52;7.05;;;1.98;;
65039;SDS011;51606;45.000;38.612;2023-08-30T14:59:18;7.97;;;2.33;;
65039;SDS011;51606;45.000;38.612;2023-08-30T15:01:44;5.95;;;2.50;;
65039;SDS011;51606;45.000;38.612;2023-08-30T15:04:20;3.10;;;1.95;;
65039;SDS011;51606;45.000;38.612;2023-08-30T15:06:46;4.97;;;1.95;;
65039;SDS011;51606;45.000;38.612;2023-08-30T15:09:13;7.78;;;2.15;;
65039;SDS011;51606;45.000;38.612;2023-08-30T15:11:42;4.97;;;2.58;;
65039;SDS011;51606;45.000;38.612;2023-08-30T15:14:09;7.00;;;1.80;;
65039;SDS011;51606;45.000;38.612;2023-08-30T15:16:35;4.65;;;2.28;;
65039;SDS011;51606;45.000;38.612;2023-08-30T15:19:02;3.88;;;2.22;;
65039;SDS011;51606;45.000;38.612;2023-08-30T15:21:31;7.00;;;2.30;;
65039;SDS011;51606;45.000;38.612;2023-08-30T15:24:01;8.93;;;2.55;;
65039;SDS011;51606;45.000;38.612;2023-08-30T15:26:32;7.75;;;2.55;;
65039;SDS011;51606;45.000;38.612;2023-08-30T15:28:59;4.70;;;2.53;;
65039;SDS011;51606;45.000;38.612;2023-08-30T15:31:26;7.97;;;2.50;;
65039;SDS011;51606;45.000;38.612;2023-08-30T15:33:52;7.97;;;2.92;;
65039;SDS011;51606;45.000;38.612;2023-08-30T15:36:19;4.47;;;2.50;;
65039;SDS011;51606;45.000;38.612;2023-08-30T15:38:45;4.13;;;2.50;;
65039;SDS011;51606;45.000;38.612;2023-08-30T15:41:12;3.88;;;2.40;;
65039;SDS011;51606;45.000;38.612;2023-08-30T15:43:39;17.23;;;2.92;;
65039;SDS011;51606;45.000;38.612;2023-08-30T15:46:07;6.47;;;2.65;;
65039;SDS011;51606;45.000;38.612;2023-08-30T15:48:34;13.63;;;2.95;;
65039;SDS011;51606;45.000;38.612;2023-08-30T15:51:01;9.70;;;3.50;;
65039;SDS011;51606;45.000;38.612;2023-08-30T15:53:28;10.65;;;3.42;;
65039;SDS011;51606;45.000;38.612;2023-08-30T15:55:54;9.45;;;2.58;;
65039;SDS011;51606;45.000;38.612;2023-08-30T15:58:21;15.13;;;3.42;;
65039;SDS011;51606;45.000;38.612;2023-08-30T16:00:48;15.65;;;3.30;;
65039;SDS011;51606;45.000;38.612;2023-08-30T16:03:14;12.82;;;3.30;;
65039;SDS011;51606;45.000;38.612;2023-08-30T16:05:42;7.40;;;2.95;;
65039;SDS011;51606;45.000;38.612;2023-08-30T16:08:09;6.82;;;3.28;;
65039;SDS011;51606;45.000;38.612;2023-08-30T16:10:37;13.68;;;3.17;;
65039;SDS011;51606;45.000;38.612;2023-08-30T16:13:03;18.33;;;3.63;;
65039;SDS011;51606;45.000;38.612;2023-08-30T16:15:30;20.20;;;3.28;;
65039;SDS011;51606;45.000;38.612;2023-08-30T16:17:57;11.63;;;3.30;;
65039;SDS011;51606;45.000;38.612;2023-08-30T16:20:24;26.10;;;3.70;;
65039;SDS011;51606;45.000;38.612;2023-08-30T16:22:51;8.48;;;2.92;;
65039;SDS011;51606;45.000;38.612;2023-08-30T16:25:19;14.77;;;3.35;;
65039;SDS011;51606;45.000;38.612;2023-08-30T16:27:45;19.05;;;3.92;;
65039;SDS011;51606;45.000;38.612;2023-08-30T16:30:11;22.45;;;3.75;;
65039;SDS011;51606;45.000;38.612;2023-08-30T16:32:38;9.80;;;3.80;;
65039;SDS011;51606;45.000;38.612;2023-08-30T16:35:05;13.98;;;2.95;;
65039;SDS011;51606;45.000;38.612;2023-08-30T16:37:32;12.23;;;2.67;;
65039;SDS011;51606;45.000;38.612;2023-08-30T16:39:58;14.90;;;2.80;;
65039;SDS011;51606;45.000;38.612;2023-08-30T16:42:25;12.68;;;3.15;;
65039;SDS011;51606;45.000;38.612;2023-08-30T16:44:51;9.60;;;3.72;;
65039;SDS011;51606;45.000;38.612;2023-08-30T16:47:18;15.77;;;3.28;;
65039;SDS011;51606;45.000;38.612;2023-08-30T16:49:44;23.67;;;3.90;;
65039;SDS011;51606;45.000;38.612;2023-08-30T16:52:11;11.90;;;3.20;;
65039;SDS011;51606;45.000;38.612;2023-08-30T16:54:37;13.32;;;3.08;;
65039;SDS011;51606;45.000;38.612;2023-08-30T16:57:04;8.10;;;3.70;;
65039;SDS011;51606;45.000;38.612;2023-08-30T16:59:30;15.13;;;3.60;;
65039;SDS011;51606;45.000;38.612;2023-08-30T17:01:57;8.88;;;3.33;;
65039;SDS011;51606;45.000;38.612;2023-08-30T17:04:23;19.55;;;2.95;;
65039;SDS011;51606;45.000;38.612;2023-08-30T17:06:50;12.05;;;3.63;;
65039;SDS011;51606;45.000;38.612;2023-08-30T17:09:16;11.40;;;3.40;;
65039;SDS011;51606;45.000;38.612;2023-08-30T17:11:43;13.07;;;3.58;;
65039;SDS011;51606;45.000;38.612;2023-08-30T17:14:12;7.28;;;3.50;;
65039;SDS011;51606;45.000;38.612;2023-08-30T17:16:40;14.35;;;3.47;;
65039;SDS011;51606;45.000;38.612;2023-08-30T17:19:07;6.30;;;3.47;;
65039;SDS011;51606;45.000;38.612;2023-08-30T17:21:33;16.67;;;3.58;;
65039;SDS011;51606;45.000;38.612;2023-08-30T17:24:00;5.70;;;3.80;;
65039;SDS011;51606;45.000;38.612;2023-08-30T17:26:26;7.88;;;3.75;;
65039;SDS011;51606;45.000;38.612;2023-08-30T17:28:53;10.20;;;3.45;;
65039;SDS011;51606;45.000;38.612;2023-08-30T17:31:19;12.45;;;3.45;;
65039;SDS011;51606;45.000;38.612;2023-08-30T17:33:48;34.20;;;4.72;;
65039;SDS011;51606;45.000;38.612;2023-08-30T17:36:15;12.45;;;3.15;;
65039;SDS011;51606;45.000;38.612;2023-08-30T17:38:42;6.50;;;3.35;;
65039;SDS011;51606;45.000;38.612;2023-08-30T17:41:09;10.63;;;3.70;;
65039;SDS011;51606;45.000;38.612;2023-08-30T17:43:36;16.38;;;4.13;;
65039;SDS011;51606;45.000;38.612;2023-08-30T17:46:03;14.43;;;4.10;;
65039;SDS011;51606;45.000;38.612;2023-08-30T17:48:30;7.00;;;3.42;;
65039;SDS011;51606;45.000;38.612;2023-08-30T17:50:57;25.15;;;4.00;;
65039;SDS011;51606;45.000;38.612;2023-08-30T17:53:23;14.70;;;3.85;;
65039;SDS011;51606;45.000;38.612;2023-08-30T17:55:53;7.15;;;3.83;;
65039;SDS011;51606;45.000;38.612;2023-08-30T17:58:22;8.88;;;3.78;;
65039;SDS011;51606;45.000;38.612;2023-08-30T18:00:48;14.35;;;3.85;;
65039;SDS011;51606;45.000;38.612;2023-08-30T18:03:19;18.45;;;3.40;;
65039;SDS011;51606;45.000;38.612;2023-08-30T18:51:55;8.18;;;3.50;;
65039;SDS011;51606;45.000;38.612;2023-08-30T18:54:22;7.97;;;4.03;;
65039;SDS011;51606;45.000;38.612;2023-08-30T18:56:49;8.55;;;4.22;;
65039;SDS011;51606;45.000;38.612;2023-08-30T18:59:15;14.85;;;4.13;;
65039;SDS011;51606;45.000;38.612;2023-08-30T19:01:42;7.20;;;3.47;;
65039;SDS011;51606;45.000;38.612;2023-08-30T19:04:08;13.93;;;3.38;;
65039;SDS011;51606;45.000;38.612;2023-08-30T19:06:35;7.15;;;3.55;;
65039;SDS011;51606;45.000;38.612;2023-08-30T19:09:01;5.70;;;2.97;;
65039;SDS011;51606;45.000;38.612;2023-08-30T19:11:29;4.97;;;3.58;;
65039;SDS011;51606;45.000;38.612;2023-08-30T19:13:55;7.35;;;3.33;;
65039;SDS011;51606;45.000;38.612;2023-08-30T19:16:21;7.20;;;3.80;;
65039;SDS011;51606;45.000;38.612;2023-08-30T19:18:48;18.52;;;3.58;;
65039;SDS011;51606;45.000;38.612;2023-08-30T19:21:15;7.78;;;3.60;;
65039;SDS011;51606;45.000;38.612;2023-08-30T19:23:45;12.98;;;4.35;;
65039;SDS011;51606;45.000;38.612;2023-08-30T19:26:14;9.93;;;3.55;;
65039;SDS011;51606;45.000;38.612;2023-08-30T19:28:44;12.25;;;3.90;;
65039;SDS011;51606;45.000;38.612;2023-08-30T19:31:11;11.80;;;3.47;;
65039;SDS011;51606;45.000;38.612;2023-08-30T19:33:37;9.88;;;3.10;;
65039;SDS011;51606;45.000;38.612;2023-08-30T19:36:03;10.95;;;4.22;;
65039;SDS011;51606;45.000;38.612;2023-08-30T19:38:30;9.30;;;3.78;;
65039;SDS011;51606;45.000;38.612;2023-08-30T19:40:56;13.90;;;4.05;;
65039;SDS011;51606;45.000;38.612;2023-08-30T19:43:23;11.27;;;3.85;;
65039;SDS011;51606;45.000;38.612;2023-08-30T19:45:59;5.93;;;3.22;;
65039;SDS011;51606;45.000;38.612;2023-08-30T19:48:27;16.63;;;4.65;;
65039;SDS011;51606;45.000;38.612;2023-08-30T19:50:54;12.32;;;3.75;;
65039;SDS011;51606;45.000;38.612;2023-08-30T19:53:21;15.70;;;3.92;;
65039;SDS011;51606;45.000;38.612;2023-08-30T19:55:48;9.27;;;4.22;;
65039;SDS011;51606;45.000;38.612;2023-08-30T19:58:18;6.28;;;3.35;;
65039;SDS011;51606;45.000;38.612;2023-08-30T20:00:45;7.78;;;3.92;;
65039;SDS011;51606;45.000;38.612;2023-08-30T20:03:14;11.20;;;4.10;;
65039;SDS011;51606;45.000;38.612;2023-08-30T20:05:51;7.97;;;3.80;;
65039;SDS011;51606;45.000;38.612;2023-08-30T20:08:17;17.02;;;4.13;;